Tiempo atmosférico en la estación meteorológica de Figueres, Girona (47 m.)



Fecha
DESCASC
Temp. máxima en grados centígrados (hora)
DESCASC
Temp. mínima en grados centígrados (hora)
DESCASC
Temp. media en grados centígrados
DESCASC
Racha de viento máxima en m/sg (hora)
DESCASC
Velocidad máxima media en intervalos de 10 minutos(hora)
DESCASC
Precipitaciones diarias en mm
DESCASC
Precipitaciones de 00:00 a 06:00 en mm
DESCASC
Precipitaciones de 06:00 a 12:00 en mm
DESCASC
Precipitaciones de 12:00 a 18:00 en mm
DESCASC
Precipitaciones de 18:00 a 24:00 en mm
DESCASC
21-02-2019 17.1 (14:20) 3.6 (08:00) 10.4 5 (15:00) 2.78 (15:00) 0 0 0 0 0
20-02-2019 16.6 (14:40) 6.4 (23:59) 11.5 6.11 (15:10) 3.06 (16:10) 0 0 0 0 0
19-02-2019 15.2 (15:00) 7.9 (06:30) 11.5 6.67 (15:50) 3.61 (16:10) 0 0 0 0 0
18-02-2019 17.3 (14:30) 3.2 (07:30) 10.2 8.89 (16:10) 4.44 (15:30) 0 0 0 0 0
17-02-2019 17.6 (14:40) 1.5 (00:00) 9.6 8.89 (15:50) 4.72 (15:50) 0 0 0 0 0
16-02-2019 16.1 (14:30) 2.3 (00:00) 9.2 5 (15:00) 2.5 (15:10) 0 0 0 0 0
15-02-2019 17 (16:00) 1.1 (00:00) 9.1 4.72 (17:10) 2.22 (17:10) 0 0 0 0 0
14-02-2019 18.4 (15:20) 2 (00:00) 10.2 7.22 (16:10) 3.61 (15:50) 0 0 0 0 0
13-02-2019 15.5 (14:00) 2.3 (00:00) 8.9 5.56 (15:30) 2.78 (15:30) 0 0 0 0 0
12-02-2019 18.4 (16:00) 5.3 (00:00) 11.8 11.11 (03:00) 5.28 (03:10) 0 0 0 0 0
11-02-2019 15 (14:50) 9.6 (00:00) 12.3 15.83 (15:50) 6.67 (17:40) 0 0 0 0 0
10-02-2019 16.9 (16:00) 9 (00:00) 12.9 13.06 (23:20) 6.11 (22:50) 0 0 0 0 0
09-02-2019 18.8 (14:00) 6 (00:00) 12.4 6.11 (02:00) 2.78 (14:20) 0 0 0 0 0
08-02-2019 15.3 (14:00) 7.9 (00:00) 11.6 8.06 (00:10) 4.17 (00:10) 0 0 0 0 0
07-02-2019 16.6 (14:20) 4.7 (00:00) 10.7 10.56 (23:10) 4.17 (22:00) 0 0 0 0 0
06-02-2019 16.8 (13:00) 5.9 (00:00) 11.3 5.28 (15:00) 2.78 (15:20) 0 0 0 0 0
05-02-2019 17 (16:20) 5.6 (00:00) 11.3 7.5 (16:40) 3.33 (18:40) 1.2 0.8 0.4 0 0
04-02-2019 15.2 (14:20) 5.6 (00:00) 10.4 18.06 (00:10) 8.06 (00:10) 0 0 0 0 0
03-02-2019 11 (15:10) 6.1 (00:00) 8.5 23.61 (06:50) 10.28 (03:00) 0 0 0 0 0
02-02-2019 11.1 (01:10) 5.9 (00:00) 8.5 17.5 (23:10) 7.5 (23:59) 1.4 0.2 1.2 0 0
01-02-2019 -- (--) -- (--) -- -- (--) -- (--) -- 0 0 -- 0
31-01-2019 14.3 (14:30) 3.1 (00:00) 8.7 5.83 (23:59) 3.61 (23:59) 0 0 0 0 0
30-01-2019 13.1 (14:00) 2.8 (00:00) 8 14.17 (06:30) 5.83 (06:40) 0 0 0 0 0
29-01-2019 8.9 (15:40) 4.3 (00:00) 6.6 19.17 (03:20) 10.28 (01:10) 0 0 0 0 0
28-01-2019 9.9 (13:40) 1.3 (00:00) 5.6 15 (23:59) 7.22 (23:59) 3.8 0 1.4 2.4 0
27-01-2019 -- (--) -- (--) -- -- (--) -- (--) -- -- -- -- --
26-01-2019 -- (--) -- (--) -- -- (--) -- (--) -- -- -- -- --
25-01-2019 -- (--) -- (--) -- -- (--) -- (--) -- -- -- -- --
24-01-2019 -- (--) -- (--) -- -- (--) -- (--) -- -- -- -- --

Gráficas

Temp. máximas Temp. mínimas Temp. medias Precipitaciones Rachas de viento máximas Velocidades máximas media en intervalos de 10 minutos

Datos horarios

Fecha y hora oficial Temperatura (ºC) Velocidad del viento (km/h) Dirección del viento Racha (km/h) Dirección de racha Precipitación (mm) Presión (hPa) Tendencia (hPa) Humedad (%)
2019-02-22 23:00:00 12.2 5 Noroeste 13 Noroeste 0 -- -- 50
2019-02-22 22:00:00 14.5 6 Noroeste 13 Noroeste 0 -- -- 43
2019-02-22 21:00:00 16.7 6 Noroeste 24 Norte 0 -- -- 37
2019-02-22 20:00:00 18.2 2 Nordeste 11 Noroeste 0 -- -- 32
2019-02-22 19:00:00 20.6 10 Nordeste 24 Nordeste 0 -- -- 27
2019-02-22 18:00:00 22.9 12 Nordeste 27 Nordeste 0 -- -- 21
2019-02-22 17:00:00 24.4 8 Nordeste 33 Este 0 -- -- 18
2019-02-22 16:00:00 24.5 12 Este 35 Nordeste 0 -- -- 19
2019-02-22 15:00:00 24.6 13 Nordeste 38 Este 0 -- -- 18
2019-02-22 14:00:00 24.2 12 Nordeste 41 Nordeste 0 -- -- 18
2019-02-22 13:00:00 23.3 12 Nordeste 41 Nordeste 0 -- -- 21
2019-02-22 12:00:00 22 17 Nordeste 39 Nordeste 0 -- -- 25
2019-02-22 11:00:00 20.5 9 Norte 32 Nordeste 0 -- -- 28
2019-02-22 10:00:00 14.6 7 Oeste 14 Oeste 0 -- -- 50
2019-02-22 09:00:00 14.7 4 Noroeste 20 Nordeste 0 -- -- 39
2019-02-22 08:00:00 8.1 4 Norte 13 Noroeste 0 -- -- 59
2019-02-22 07:00:00 7.3 5 Noroeste 10 Noroeste 0 -- -- 66
2019-02-22 06:00:00 8.9 3 Sudoeste 17 Nordeste 0 -- -- 62
2019-02-22 05:00:00 6.1 3 Oeste 8 Noroeste 0 -- -- 75
2019-02-22 04:00:00 6 5 Noroeste 9 Noroeste 0 -- -- 77
2019-02-22 03:00:00 5.6 2 Noroeste 7 Noroeste 0 -- -- 85
2019-02-22 02:00:00 5.8 4 Noroeste 8 Norte 0 -- -- 86
2019-02-22 01:00:00 6.9 0 Calma 8 Noroeste 0 -- -- 85
2019-02-22 00:00:00 7.1 3 Noroeste 6 Norte 0 -- -- 86
2019-02-21 23:00:00 8.1 0 Calma 6 Norte 0 -- -- 86
2019-02-21 22:00:00 8.7 0 Calma 4 Noroeste 0 -- -- 82
2019-02-21 21:00:00 10 3 Norte 8 Noroeste 0 -- -- 79
2019-02-21 20:00:00 11.6 4 Norte 6 Noroeste 0 -- -- 75
2019-02-21 19:00:00 13.2 0 Calma 6 Sur 0 -- -- 68
2019-02-21 18:00:00 14.5 3 Sur 10 Sur 0 -- -- 65
2019-02-21 17:00:00 15.6 6 Sur 12 Sudoeste 0 -- -- 60
2019-02-21 16:00:00 16.2 6 Sur 17 Sur 0 -- -- 61
2019-02-21 15:00:00 16.5 10 Sur 18 Sur 0 -- -- 58
2019-02-21 14:00:00 16.8 5 Oeste 12 Sur 0 -- -- 54
2019-02-21 13:00:00 15.9 4 Sudoeste 10 Oeste 0 -- -- 57
2019-02-21 12:00:00 13.5 4 Sudeste 9 Sudeste 0 -- -- 65
2019-02-21 11:00:00 12.2 2 Sur 6 Sudeste 0 -- -- 69
2019-02-21 10:00:00 9.6 0 Calma 4 Oeste 0 -- -- 79
2019-02-21 09:00:00 5.3 3 Noroeste 5 Noroeste 0 -- -- 90
2019-02-21 08:00:00 3.6 0 Calma 3 Sudoeste 0 -- -- 92
2019-02-21 07:00:00 4 0 Calma 6 Noroeste 0 -- -- 93
2019-02-21 06:00:00 4.1 3 Noroeste 7 Noroeste 0 -- -- 93
2019-02-21 05:00:00 4.1 3 Noroeste 7 Noroeste 0 -- -- 92
2019-02-21 04:00:00 4.5 5 Noroeste 6 Noroeste 0 -- -- 92
2019-02-21 03:00:00 5 0 Calma 5 Noroeste 0 -- -- 91
2019-02-21 02:00:00 5.6 3 Norte 9 Noroeste 0 -- -- 91
2019-02-21 01:00:00 5.7 5 Noroeste 7 Noroeste 0 -- -- 89
2019-02-21 00:00:00 6.4 3 Noroeste 6 Noroeste 0 -- -- 89
2019-02-20 23:00:00 7.7 0 Calma 5 Noroeste 0 -- -- 87
2019-02-20 22:00:00 9.3 0 Calma 8 Nordeste 0 -- -- 85
2019-02-20 21:00:00 10.2 4 Nordeste 9 Nordeste 0 -- -- 83
2019-02-20 20:00:00 11.2 3 Este 8 Sur 0 -- -- 74
2019-02-20 19:00:00 12.2 4 Sudeste 10 Sur 0 -- -- 72
2019-02-20 18:00:00 13.9 4 Sur 17 Sudeste 0 -- -- 67
2019-02-20 17:00:00 14.8 9 Sudeste 21 Sur 0 -- -- 64
2019-02-20 16:00:00 15.5 10 Sur 22 Sudeste 0 -- -- 59
2019-02-20 15:00:00 16.3 9 Sur 16 Sudoeste 0 -- -- 56
2019-02-20 14:00:00 15.5 6 Oeste 17 Oeste 0 -- -- 56
2019-02-20 13:00:00 15.4 6 Oeste 18 Noroeste 0 -- -- 55
2019-02-20 12:00:00 14.6 4 Oeste 10 Sudoeste 0 -- -- 59
2019-02-20 11:00:00 12.4 4 Oeste 7 Oeste 0 -- -- 75
2019-02-20 10:00:00 11.2 3 Sudoeste 5 Sudoeste 0 -- -- 80
2019-02-20 09:00:00 10 0 Calma 4 Este 0 -- -- 85
2019-02-20 08:00:00 9.7 0 Calma 8 Oeste 0 -- -- 85
2019-02-20 07:00:00 9.7 0 Calma 5 Noroeste 0 -- -- 85
2019-02-20 06:00:00 9.7 0 Calma 5 Sur 0 -- -- 83
2019-02-20 05:00:00 9.9 0 Calma 3 Sudoeste 0 -- -- 82
2019-02-20 04:00:00 10 0 Calma 3 Noroeste 0 -- -- 82
2019-02-20 03:00:00 10.3 0 Calma 3 Sur 0 -- -- 80
2019-02-20 02:00:00 10.5 0 Calma 3 Sudeste 0 -- -- 79
2019-02-20 01:00:00 10.6 0 Calma 3 Sudeste 0 -- -- 79
2019-02-20 00:00:00 10.6 0 Calma 4 Sudeste 0 -- -- 78
2019-02-19 23:00:00 10.8 0 Calma 4 Sudoeste 0 -- -- 78
2019-02-19 22:00:00 11.1 3 Sudoeste 6 Sur 0 -- -- 76
2019-02-19 21:00:00 11.6 4 Sudoeste 6 Sur 0 -- -- 74
2019-02-19 20:00:00 11.9 3 Sudoeste 8 Sur 0 -- -- 74
2019-02-19 19:00:00 12.2 6 Sur 15 Sur 0 -- -- 74
2019-02-19 18:00:00 12.9 6 Sur 18 Sur 0 -- -- 71
2019-02-19 17:00:00 14 8 Sur 23 Sudoeste 0 -- -- 69
2019-02-19 16:00:00 14.6 10 Sur 24 Sur 0 -- -- 66
2019-02-19 15:00:00 15.2 10 Sur 23 Sur 0 -- -- 61
2019-02-19 14:00:00 14.3 7 Sur 15 Sudoeste 0 -- -- 61
2019-02-19 13:00:00 14.7 6 Sudoeste 15 Sudoeste 0 -- -- 59
2019-02-19 12:00:00 14.2 5 Sudoeste 10 Sudoeste 0 -- -- 64
2019-02-19 11:00:00 12.3 2 Oeste 8 Oeste 0 -- -- 74
2019-02-19 10:00:00 10.4 4 Noroeste 6 Noroeste 0 -- -- 84
2019-02-19 09:00:00 9.1 0 Calma 6 Noroeste 0 -- -- 89
2019-02-19 08:00:00 8.2 2 Oeste 7 Noroeste 0 -- -- 90
2019-02-19 07:00:00 8.1 5 Noroeste 10 Noroeste 0 -- -- 90
2019-02-19 06:00:00 8.1 5 Noroeste 9 Noroeste 0 -- -- 90
2019-02-19 05:00:00 8.8 4 Noroeste 7 Noroeste 0 -- -- 88
2019-02-19 04:00:00 9.9 2 Oeste 6 Noroeste 0 -- -- 88
2019-02-19 03:00:00 10.2 3 Noroeste 7 Noroeste 0 -- -- 87
2019-02-19 02:00:00 10.3 3 Noroeste 7 Noroeste 0 -- -- 87
2019-02-19 01:00:00 10.3 3 Noroeste 6 Noroeste 0 -- -- 87
2019-02-19 00:00:00 10.3 3 Noroeste 6 Oeste 0 -- -- 87
2019-02-18 23:00:00 10.8 3 Oeste 6 Oeste 0 -- -- 85
2019-02-18 22:00:00 11.1 4 Sur 6 Oeste 0 -- -- 84
2019-02-18 21:00:00 11.1 2 Sudoeste 7 Sudoeste 0 -- -- 85
2019-02-18 20:00:00 10.9 4 Sudoeste 13 Sudoeste 0 -- -- 84
2019-02-18 19:00:00 11.7 5 Sudoeste 20 Sur 0 -- -- 80
2019-02-18 18:00:00 13.4 11 Sur 23 Sur 0 -- -- 72
2019-02-18 17:00:00 14.9 12 Sur 32 Sur 0 -- -- 65
2019-02-18 16:00:00 16.2 14 Sur 29 Sur 0 -- -- 59
2019-02-18 15:00:00 16.9 15 Sudoeste 28 Sur 0 -- -- 57
2019-02-18 14:00:00 16.9 13 Oeste 25 Oeste 0 -- -- 52
2019-02-18 13:00:00 15.9 9 Oeste 22 Oeste 0 -- -- 60
2019-02-18 12:00:00 13.5 6 Sur 15 Sudoeste 0 -- -- 74
2019-02-18 11:00:00 11.3 4 Sur 6 Sur 0 -- -- 75
2019-02-18 10:00:00 9 0 Calma 6 Sudoeste 0 -- -- 78
2019-02-18 09:00:00 4.9 5 Noroeste 10 Noroeste 0 -- -- 89
2019-02-18 08:00:00 3.5 4 Norte 8 Noroeste 0 -- -- 93
2019-02-18 07:00:00 3.6 3 Sudoeste 8 Noroeste 0 -- -- 91
2019-02-18 06:00:00 4.8 2 Norte 7 Norte 0 -- -- 93
2019-02-18 05:00:00 4.9 5 Noroeste 6 Noroeste 0 -- -- 94
2019-02-18 04:00:00 5.5 0 Calma 5 Nordeste 0 -- -- 93
2019-02-18 03:00:00 6.7 5 Noroeste 6 Noroeste 0 -- -- 94
2019-02-18 02:00:00 6.9 0 Calma 5 Norte 0 -- -- 94
2019-02-18 01:00:00 7.3 0 Calma 5 Sudoeste 0 -- -- 93
2019-02-18 00:00:00 7.9 0 Calma 5 Sur 0 -- -- 91
2019-02-17 23:00:00 8.8 0 Calma 6 Sur 0 -- -- 90
2019-02-17 22:00:00 9.1 0 Calma 6 Sur 0 -- -- 90
2019-02-17 21:00:00 9.3 3 Sudoeste 8 Sudoeste 0 -- -- 88
2019-02-17 20:00:00 10.3 3 Sur 10 Sur 0 -- -- 85
2019-02-17 19:00:00 11.5 5 Sudoeste 18 Sudoeste 0 -- -- 80
2019-02-17 18:00:00 13.4 10 Sudoeste 24 Sudoeste 0 -- -- 71
2019-02-17 17:00:00 15 15 Sur 29 Sudoeste 0 -- -- 68
2019-02-17 16:00:00 16.3 13 Sur 32 Sur 0 -- -- 61
2019-02-17 15:00:00 17.5 15 Sur 30 Sur 0 -- -- 57
2019-02-17 14:00:00 16.2 7 Sudeste 15 Sur 0 -- -- 64
2019-02-17 13:00:00 14.6 7 Sur 14 Sur 0 -- -- 68
2019-02-17 12:00:00 12.8 5 Sudeste 9 Sur 0 -- -- 72
2019-02-17 11:00:00 10.4 2 Este 8 Noroeste 0 -- -- 76
2019-02-17 10:00:00 7.4 0 Calma 5 Sur 0 -- -- 81
2019-02-17 09:00:00 4.9 3 Sur 9 Noroeste 0 -- -- 91
2019-02-17 08:00:00 4 3 Noroeste 10 Noroeste 0 -- -- 96
2019-02-17 07:00:00 1.9 5 Noroeste 9 Noroeste 0 -- -- 96
2019-02-17 06:00:00 1.7 4 Noroeste 9 Noroeste 0 -- -- 93
2019-02-17 05:00:00 2.6 3 Norte 9 Oeste 0 -- -- 94
2019-02-17 04:00:00 2.8 0 Calma 5 Noroeste 0 -- -- 93
2019-02-17 03:00:00 3.9 0 Calma 7 Norte 0 -- -- 93
2019-02-17 02:00:00 4.6 3 Noroeste 9 Noroeste 0 -- -- 93
2019-02-17 01:00:00 4.5 3 Noroeste 5 Noroeste 0 -- -- 94
2019-02-17 00:00:00 5.4 2 Sudoeste 5 Sudoeste 0 -- -- 92
2019-02-16 23:00:00 6.5 3 Noroeste 8 Noroeste 0 -- -- 91
2019-02-16 22:00:00 7.2 4 Noroeste 8 Noroeste 0 -- -- 91
2019-02-16 21:00:00 9.7 3 Noroeste 9 Nordeste 0 -- -- 90
2019-02-16 20:00:00 10.6 3 Nordeste 10 Este 0 -- -- 89
2019-02-16 19:00:00 11.4 5 Este 12 Sudeste 0 -- -- 87
2019-02-16 18:00:00 12.4 6 Sudeste 14 Sudeste 0 -- -- 81
2019-02-16 17:00:00 13.5 8 Sudeste 16 Sudeste 0 -- -- 75
2019-02-16 16:00:00 14.2 8 Sudeste 17 Sudeste 0 -- -- 71
2019-02-16 15:00:00 15.3 9 Sur 18 Sudeste 0 -- -- 59
2019-02-16 14:00:00 15.6 6 Sur 13 Sudoeste 0 -- -- 57
2019-02-16 13:00:00 14 2 Sur 9 Sur 0 -- -- 61
2019-02-16 12:00:00 11.9 4 Sudoeste 9 Sudoeste 0 -- -- 78
2019-02-16 11:00:00 9.4 2 Sur 6 Sur 0 -- -- 91
2019-02-16 10:00:00 6.8 0 Calma 8 Noroeste 0 -- -- 94
2019-02-16 09:00:00 4.2 7 Noroeste 10 Noroeste 0 -- -- 94
2019-02-16 08:00:00 2.3 0 Calma 5 Noroeste 0 -- -- 92
2019-02-16 07:00:00 3.3 2 Sur 10 Noroeste 0 -- -- 93
2019-02-16 06:00:00 2.8 4 Norte 8 Norte 0 -- -- 94
2019-02-16 05:00:00 2.6 2 Noroeste 6 Noroeste 0 -- -- 92
2019-02-16 04:00:00 3.2 4 Noroeste 5 Noroeste 0 -- -- 93
2019-02-16 03:00:00 3.9 0 Calma 5 Noroeste 0 -- -- 92
2019-02-16 02:00:00 4 2 Noroeste 4 Noroeste 0 -- -- 91
2019-02-16 01:00:00 5 2 Sur 7 Noroeste 0 -- -- 91
2019-02-16 00:00:00 5.4 0 Calma 5 Noroeste 0 -- -- 89
2019-02-15 23:00:00 6.4 0 Calma 4 Sudoeste 0 -- -- 89
2019-02-15 22:00:00 8 3 Sudoeste 5 Sudoeste 0 -- -- 87
2019-02-15 21:00:00 9.9 0 Calma 8 Nordeste 0 -- -- 87
2019-02-15 20:00:00 10.7 3 Nordeste 7 Este 0 -- -- 86
2019-02-15 19:00:00 11.8 4 Este 12 Nordeste 0 -- -- 82
2019-02-15 18:00:00 13.8 5 Este 17 Nordeste 0 -- -- 73
2019-02-15 17:00:00 16.3 5 Este 16 Este 0 -- -- 60
2019-02-15 16:00:00 17 6 Sudeste 15 Este 0 -- -- 54
2019-02-15 15:00:00 15.9 4 Sudeste 13 Sudeste 0 -- -- 60
2019-02-15 14:00:00 15.1 7 Sur 14 Sudeste 0 -- -- 51
2019-02-15 13:00:00 13.8 4 Sudeste 6 Sur 0 -- -- 53
2019-02-15 12:00:00 11.9 3 Sudoeste 8 Oeste 0 -- -- 60
2019-02-15 11:00:00 9.6 3 Sudeste 6 Sudeste 0 -- -- 72
2019-02-15 10:00:00 7.2 0 Calma 4 Noroeste 0 -- -- 79
2019-02-15 09:00:00 3.7 0 Calma 6 Norte 0 -- -- 89
2019-02-15 08:00:00 1.1 0 Calma 6 Noroeste 0 -- -- 92
2019-02-15 07:00:00 1.6 0 Calma 6 Noroeste 0 -- -- 93
2019-02-15 06:00:00 2 3 Noroeste 7 Noroeste 0 -- -- 92
2019-02-15 05:00:00 2.7 5 Noroeste 8 Noroeste 0 -- -- 92
2019-02-15 04:00:00 3.1 5 Noroeste 8 Noroeste 0 -- -- 91
2019-02-15 03:00:00 3.2 0 Calma 8 Noroeste 0 -- -- 90
2019-02-15 02:00:00 3.6 2 Nordeste 6 Norte 0 -- -- 90
2019-02-15 01:00:00 3.9 3 Sudoeste 6 Norte 0 -- -- 87
2019-02-15 00:00:00 4.7 6 Noroeste 10 Noroeste 0 -- -- 84
2019-02-14 23:00:00 7.1 3 Oeste 5 Oeste 0 -- -- 82
2019-02-14 22:00:00 8.3 0 Calma 6 Oeste 0 -- -- 77
2019-02-14 21:00:00 9.3 0 Calma 4 Norte 0 -- -- 72
2019-02-14 20:00:00 10.1 2 Sudoeste 6 Sur 0 -- -- 68
2019-02-14 19:00:00 11.4 3 Sur 11 Sudoeste 0 -- -- 62
2019-02-14 18:00:00 14.6 5 Sur 17 Sudoeste 0 -- -- 50
2019-02-14 17:00:00 17.4 7 Sudoeste 26 Sudoeste 0 -- -- 36
2019-02-14 16:00:00 18.1 13 Oeste 24 Sudoeste 0 -- -- 31
2019-02-14 15:00:00 17.7 8 Sur 17 Sur 0 -- -- 43
2019-02-14 14:00:00 14.9 8 Sudeste 16 Sudeste 0 -- -- 64
2019-02-14 13:00:00 14.3 6 Sur 13 Sudoeste 0 -- -- 63
2019-02-14 12:00:00 11.7 5 Oeste 11 Oeste 0 -- -- 64
2019-02-14 11:00:00 9.3 3 Sudeste 6 Sudeste 0 -- -- 76
2019-02-14 10:00:00 7.1 3 Sur 5 Sur 0 -- -- 78
2019-02-14 09:00:00 3.8 0 Calma 8 Norte 0 -- -- 90
2019-02-14 08:00:00 2 5 Noroeste 8 Noroeste 0 -- -- 92
2019-02-14 07:00:00 2.2 4 Noroeste 7 Noroeste 0 -- -- 92
2019-02-14 06:00:00 2.9 0 Calma 5 Norte 0 -- -- 92
2019-02-14 05:00:00 3.2 3 Norte 6 Noroeste 0 -- -- 92
2019-02-14 04:00:00 3.6 2 Noroeste 9 Noroeste 0 -- -- 91
2019-02-14 03:00:00 3.9 4 Noroeste 12 Noroeste 0 -- -- 91
2019-02-14 02:00:00 4.2 4 Noroeste 8 Noroeste 0 -- -- 89
2019-02-14 01:00:00 4.6 5 Noroeste 8 Noroeste 0 -- -- 87
2019-02-14 00:00:00 5.4 0 Calma 4 Noroeste 0 -- -- 84
2019-02-13 23:00:00 5.9 0 Calma 4 Noroeste 0 -- -- 82
2019-02-13 22:00:00 7.1 0 Calma 6 Norte 0 -- -- 77
2019-02-13 21:00:00 9 3 Nordeste 9 Nordeste 0 -- -- 73
2019-02-13 20:00:00 9.7 4 Este 7 Este 0 -- -- 71
2019-02-13 19:00:00 10.3 3 Sudeste 13 Sur 0 -- -- 70
2019-02-13 18:00:00 11.3 5 Sur 15 Sur 0 -- -- 65
2019-02-13 17:00:00 12.7 8 Sur 18 Sur 0 -- -- 59
2019-02-13 16:00:00 14 10 Sudoeste 20 Sudoeste 0 -- -- 54
2019-02-13 15:00:00 14.9 8 Sur 19 Sur 0 -- -- 49
2019-02-13 14:00:00 15.5 4 Sur 16 Sur 0 -- -- 47
2019-02-13 13:00:00 14.2 5 Sudeste 13 Sudeste 0 -- -- 45
2019-02-13 12:00:00 13.4 4 Sur 9 Sur -- -- -- 47
2019-02-13 11:00:00 11.8 3 Sudeste 6 Sur 0 -- -- 50
2019-02-13 10:00:00 8.8 2 Oeste 8 Noroeste 0 -- -- 60
2019-02-13 09:00:00 4.6 5 Noroeste 12 Noroeste 0 -- -- 69
2019-02-13 08:00:00 3.1 6 Sudeste 13 Sur 0 -- -- 70
2019-02-13 07:00:00 3.3 4 Norte 10 Noroeste 0 -- -- 72
2019-02-13 06:00:00 2.9 4 Norte 9 Este 0 -- -- 70
2019-02-13 05:00:00 2.7 3 Noroeste 9 Noroeste 0 -- -- 71
2019-02-13 04:00:00 2.5 0 Calma 5 Noroeste 0 -- -- 74
2019-02-13 03:00:00 3.6 2 Sudoeste 6 Noroeste 0 -- -- 72
2019-02-13 02:00:00 4 5 Noroeste 6 Noroeste 0 -- -- 72
2019-02-13 01:00:00 4.7 5 Noroeste 7 Norte 0 -- -- 71
2019-02-13 00:00:00 5.3 0 Calma 8 Noroeste 0 -- -- 67
2019-02-12 23:00:00 6.4 6 Noroeste 11 Noroeste 0 -- -- 64
2019-02-12 22:00:00 7.7 3 Noroeste 10 Norte 0 -- -- 62
2019-02-12 21:00:00 8.9 7 Noroeste 12 Noroeste 0 -- -- 61
2019-02-12 20:00:00 10.8 0 Calma 5 Este 0 -- -- 64
2019-02-12 19:00:00 12.2 3 Este 8 Este 0 -- -- 60
2019-02-12 18:00:00 13.8 3 Sudeste 15 Sudeste 0 -- -- 53
2019-02-12 17:00:00 16.3 6 Sudeste 17 Sudeste 0 -- -- 45
2019-02-12 16:00:00 18.4 5 Norte 23 Norte 0 -- -- 28
2019-02-12 15:00:00 18.2 8 Norte 17 Noroeste 0 -- -- 29
2019-02-12 14:00:00 17.7 6 Norte 22 Nordeste 0 -- -- 32
2019-02-12 13:00:00 16.7 10 Norte 24 Nordeste 0 -- -- 34
2019-02-12 12:00:00 15.4 6 Norte 21 Norte 0 -- -- 37
2019-02-12 11:00:00 13.5 9 Norte 24 Norte 0 -- -- 44
2019-02-12 10:00:00 11.8 8 Norte 35 Norte 0 -- -- 46
2019-02-12 09:00:00 10.5 11 Nordeste 40 Nordeste 0 -- -- 50
2019-02-12 08:00:00 7 9 Noroeste 21 Norte 0 -- -- 66
2019-02-12 07:00:00 5.9 9 Noroeste 27 Norte 0 -- -- 73
2019-02-12 06:00:00 9.2 10 Nordeste 27 Norte 0 -- -- 58
2019-02-12 05:00:00 9 5 Sudoeste 29 Nordeste 0 -- -- 59
2019-02-12 04:00:00 10.2 12 Nordeste 40 Nordeste 0 -- -- 55
2019-02-12 03:00:00 9.7 18 Nordeste 40 Nordeste 0 -- -- 62
2019-02-12 02:00:00 9.3 6 Norte 16 Norte 0 -- -- 64
2019-02-12 01:00:00 9.9 5 Norte 18 Nordeste 0 -- -- 61
2019-02-12 00:00:00 10.3 7 Nordeste 29 Nordeste 0 -- -- 58
2019-02-11 23:00:00 10.9 17 Nordeste 40 Este 0 -- -- 54
2019-02-11 22:00:00 10.9 9 Norte 47 Norte 0 -- -- 53
2019-02-11 21:00:00 10.8 15 Nordeste 39 Nordeste 0 -- -- 51
2019-02-11 20:00:00 11.3 15 Nordeste 45 Nordeste 0 -- -- 50
2019-02-11 19:00:00 11.3 18 Nordeste 50 Nordeste 0 -- -- 55
2019-02-11 18:00:00 11.8 20 Nordeste 51 Nordeste 0 -- -- 53
2019-02-11 17:00:00 12.6 19 Nordeste 50 Norte 0 -- -- 49
2019-02-11 16:00:00 12.7 22 Nordeste 57 Nordeste 0 -- -- 52
2019-02-11 15:00:00 14.7 20 Nordeste 41 Norte 0 -- -- 44
2019-02-11 14:00:00 14.5 15 Nordeste 43 Nordeste 0 -- -- 45
2019-02-11 13:00:00 13.8 22 Nordeste 43 Nordeste 0 -- -- 49
2019-02-11 12:00:00 14.5 15 Nordeste 39 Este 0 -- -- 44
2019-02-11 11:00:00 12.8 20 Nordeste 41 Nordeste 0 -- -- 50
2019-02-11 10:00:00 12.3 19 Nordeste 39 Nordeste 0 -- -- 49
2019-02-11 09:00:00 10.9 15 Nordeste 33 Nordeste 0 -- -- 54
2019-02-11 08:00:00 9.6 12 Nordeste 31 Nordeste 0 -- -- 60
2019-02-11 07:00:00 9.8 11 Nordeste 43 Nordeste 0 -- -- 58
2019-02-11 06:00:00 10.7 14 Nordeste 30 Nordeste 0 -- -- 50
2019-02-11 05:00:00 11.3 15 Nordeste 41 Nordeste 0 -- -- 42
2019-02-11 04:00:00 11.3 14 Nordeste 38 Nordeste 0 -- -- 38
2019-02-11 03:00:00 11.3 20 Nordeste 47 Norte 0 -- -- 41
2019-02-11 02:00:00 11.1 20 Nordeste 50 Nordeste 0 -- -- 47
2019-02-11 01:00:00 10.9 22 Nordeste 41 Nordeste 0 -- -- 54
2019-02-11 00:00:00 10.6 19 Nordeste 47 Nordeste 0 -- -- 60
2019-02-10 23:00:00 11.2 18 Nordeste 45 Nordeste 0 -- -- 58
2019-02-10 22:00:00 12.6 19 Nordeste 40 Nordeste 0 -- -- 52
2019-02-10 21:00:00 12.8 19 Nordeste 42 Nordeste 0 -- -- 52
2019-02-10 20:00:00 13.1 17 Nordeste 38 Nordeste 0 -- -- 59
2019-02-10 19:00:00 13.7 9 Nordeste 24 Nordeste 0 -- -- 57
2019-02-10 18:00:00 14.5 9 Nordeste 31 Este 0 -- -- 59
2019-02-10 17:00:00 16.5 5 Sudeste 15 Sur 0 -- -- 59
2019-02-10 16:00:00 16.9 5 Sur 11 Sudeste 0 -- -- 57
2019-02-10 15:00:00 16.1 4 Sudeste 10 Sudeste 0 -- -- 59
2019-02-10 14:00:00 14.9 3 Sudeste 23 Nordeste 0 -- -- 66
2019-02-10 13:00:00 13.1 12 Nordeste 27 Nordeste 0 -- -- 74
2019-02-10 12:00:00 11.5 6 Nordeste 16 Nordeste 0 -- -- 78
2019-02-10 11:00:00 10.8 3 Sudeste 6 Este 0 -- -- 80
2019-02-10 10:00:00 10.6 0 Calma 6 Norte 0 -- -- 82
2019-02-10 09:00:00 9.2 2 Nordeste 8 Nordeste 0 -- -- 83
2019-02-10 08:00:00 9.7 5 Nordeste 12 Nordeste 0 -- -- 78
2019-02-10 07:00:00 9.8 4 Nordeste 15 Nordeste 0 -- -- 78
2019-02-10 06:00:00 9.1 3 Nordeste 9 Sudeste 0 -- -- 85
2019-02-10 05:00:00 9.6 2 Norte 13 Nordeste 0 -- -- 85
2019-02-10 04:00:00 9.3 4 Nordeste 10 Nordeste 0 -- -- 88
2019-02-10 03:00:00 9.2 5 Nordeste 12 Nordeste 0 -- -- 90
2019-02-10 02:00:00 9.2 3 Nordeste 9 Este 0 -- -- 88
2019-02-10 01:00:00 9.6 0 Calma 5 Nordeste 0 -- -- 88
2019-02-10 00:00:00 9.4 3 Norte 10 Este 0 -- -- 91
2019-02-09 23:00:00 9.5 3 Este 15 Oeste 0 -- -- 91
2019-02-09 22:00:00 9.8 2 Sudoeste 14 Oeste 0 -- -- 88
2019-02-09 21:00:00 10.3 9 Oeste 14 Oeste 0 -- -- 86
2019-02-09 20:00:00 10.8 2 Nordeste 6 Nordeste 0 -- -- 90
2019-02-09 19:00:00 11.3 2 Este 8 Sudeste 0 -- -- 89
2019-02-09 18:00:00 12.3 5 Sudeste 12 Sur 0 -- -- 83
2019-02-09 17:00:00 13.5 6 Sur 16 Sur 0 -- -- 77
2019-02-09 16:00:00 15.5 9 Sur 17 Sur 0 -- -- 69
2019-02-09 15:00:00 16.8 9 Sur 19 Sur 0 -- -- 65
2019-02-09 14:00:00 18.8 7 Sudoeste 14 Sudoeste 0 -- -- 42
2019-02-09 13:00:00 17.1 4 Sudoeste 9 Oeste 0 -- -- 52
2019-02-09 12:00:00 14.6 2 Sudoeste 6 Oeste 0 -- -- 66
2019-02-09 11:00:00 12.1 2 Sudeste 10 Noroeste 0 -- -- 76
2019-02-09 10:00:00 8.3 4 Oeste 9 Noroeste 0 -- -- 87
2019-02-09 09:00:00 6.8 3 Nordeste 8 Noroeste 0 -- -- 93
2019-02-09 08:00:00 6.4 5 Noroeste 10 Norte 0 -- -- 92
2019-02-09 07:00:00 6.7 0 Calma 9 Noroeste 0 -- -- 91
2019-02-09 06:00:00 7.9 3 Noroeste 10 Norte 0 -- -- 88
2019-02-09 05:00:00 8.5 3 Norte 12 Nordeste 0 -- -- 89
2019-02-09 04:00:00 9 5 Norte 17 Norte 0 -- -- 89
2019-02-09 03:00:00 9.2 6 Nordeste 19 Nordeste 0 -- -- 87
2019-02-09 02:00:00 9.6 9 Nordeste 22 Nordeste 0 -- -- 87
2019-02-09 01:00:00 9.7 4 Norte 18 Nordeste 0 -- -- 88
2019-02-09 00:00:00 9.3 5 Nordeste 13 Nordeste 0 -- -- 90
2019-02-08 23:00:00 7.9 0 Calma 4 Norte 0 -- -- 89
2019-02-08 22:00:00 8.3 0 Calma 7 Oeste 0 -- -- 87
2019-02-08 21:00:00 9.5 0 Calma 5 Norte 0 -- -- 83
2019-02-08 20:00:00 11.2 0 Calma 5 Nordeste 0 -- -- 79
2019-02-08 19:00:00 12.2 0 Calma 5 Norte 0 -- -- 76
2019-02-08 18:00:00 13.3 4 Nordeste 8 Este 0 -- -- 73
2019-02-08 17:00:00 13.9 4 Sudeste 10 Sur 0 -- -- 70
2019-02-08 16:00:00 14.1 7 Sudeste 19 Sudeste 0 -- -- 70
2019-02-08 15:00:00 14.5 9 Sur 18 Sudeste 0 -- -- 67
2019-02-08 14:00:00 15.3 6 Sur 19 Sudoeste 0 -- -- 62
2019-02-08 13:00:00 14.8 6 Sudoeste 15 Sur 0 -- -- 63
2019-02-08 12:00:00 14.6 6 Oeste 14 Oeste 0 -- -- 61
2019-02-08 11:00:00 13.7 4 Sudoeste 8 Sudoeste 0 -- -- 59
2019-02-08 10:00:00 11.1 2 Oeste 6 Noroeste 0 -- -- 68
2019-02-08 09:00:00 10 3 Noroeste 7 Oeste 0 -- -- 72
2019-02-08 08:00:00 10.3 2 Norte 7 Nordeste 0 -- -- 68
2019-02-08 07:00:00 10.2 0 Calma 8 Norte 0 -- -- 68
2019-02-08 06:00:00 10.9 3 Norte 14 Nordeste 0 -- -- 65
2019-02-08 05:00:00 11.1 4 Norte 12 Norte 0 -- -- 64
2019-02-08 04:00:00 11.3 4 Norte 15 Nordeste 0 -- -- 62
2019-02-08 03:00:00 11.5 6 Norte 19 Nordeste 0 -- -- 60
2019-02-08 02:00:00 11.6 8 Norte 29 Nordeste 0 -- -- 60
2019-02-08 01:00:00 11.7 13 Nordeste 29 Nordeste 0 -- -- 61
2019-02-08 00:00:00 12.1 14 Nordeste 38 Nordeste 0 -- -- 59
2019-02-07 23:00:00 12.5 14 Nordeste 34 Nordeste 0 -- -- 58
2019-02-07 22:00:00 12.8 15 Nordeste 32 Nordeste 0 -- -- 60
2019-02-07 21:00:00 12.9 7 Nordeste 19 Norte 0 -- -- 64
2019-02-07 20:00:00 12.4 0 Calma 6 Nordeste 0 -- -- 80
2019-02-07 19:00:00 12.5 2 Sudeste 4 Sudeste 0 -- -- 79
2019-02-07 18:00:00 12.5 2 Sudoeste 9 Sur 0 -- -- 80
2019-02-07 17:00:00 12.8 3 Sur 11 Sudeste 0 -- -- 80
2019-02-07 16:00:00 14.2 5 Sur 12 Sur 0 -- -- 74
2019-02-07 15:00:00 15.4 6 Sur 14 Sudoeste 0 -- -- 70
2019-02-07 14:00:00 16.5 5 Sur 11 Sur 0 -- -- 64
2019-02-07 13:00:00 14.9 6 Sur 10 Sudeste 0 -- -- 70
2019-02-07 12:00:00 13.2 3 Sur 7 Sur 0 -- -- 76
2019-02-07 11:00:00 12.1 3 Sudeste 8 Sur 0 -- -- 80
2019-02-07 10:00:00 9.5 0 Calma 7 Noroeste 0 -- -- 88
2019-02-07 09:00:00 5.8 5 Noroeste 10 Noroeste 0 -- -- 95
2019-02-07 08:00:00 5.4 2 Sudoeste 11 Noroeste 0 -- -- 95
2019-02-07 07:00:00 4.9 3 Noroeste 9 Noroeste 0 -- -- 95
2019-02-07 06:00:00 5.1 0 Calma 4 Sudoeste 0 -- -- 95
2019-02-07 05:00:00 5.9 0 Calma 8 Oeste 0 -- -- 96
2019-02-07 04:00:00 5.7 5 Noroeste 7 Norte 0 -- -- 95
2019-02-07 03:00:00 5.9 0 Calma 5 Noroeste 0 -- -- 94
2019-02-07 02:00:00 6.2 3 Noroeste 6 Noroeste 0 -- -- 94
2019-02-07 01:00:00 6.5 3 Noroeste 5 Noroeste 0 -- -- 92
2019-02-07 00:00:00 7.5 2 Norte 6 Noroeste 0 -- -- 93
2019-02-06 23:00:00 8.4 4 Noroeste 7 Noroeste 0 -- -- 92
2019-02-06 22:00:00 8.8 4 Noroeste 6 Noroeste 0 -- -- 91
2019-02-06 21:00:00 10.4 0 Calma 6 Nordeste 0 -- -- 88
2019-02-06 20:00:00 11.4 0 Calma 8 Este 0 -- -- 87
2019-02-06 19:00:00 12.1 4 Este 8 Sudeste 0 -- -- 86
2019-02-06 18:00:00 13 4 Sudeste 12 Sudeste 0 -- -- 82
2019-02-06 17:00:00 14.2 6 Sudeste 18 Este 0 -- -- 74
2019-02-06 16:00:00 15.4 9 Sudeste 18 Sur 0 -- -- 68
2019-02-06 15:00:00 16.3 8 Sudeste 19 Sudeste 0 -- -- 64
2019-02-06 14:00:00 16.7 9 Sur 18 Sudoeste 0 -- -- 62
2019-02-06 13:00:00 16.8 7 Sur 13 Sur 0 -- -- 57
2019-02-06 12:00:00 15.5 6 Sur 12 Sur 0 -- -- 58
2019-02-06 11:00:00 12.4 4 Sudeste 8 Sur 0 -- -- 67
2019-02-06 10:00:00 9.5 4 Sur 10 Sur 0 -- -- 73
2019-02-06 09:00:00 7.9 4 Noroeste 15 Noroeste 0 -- -- 82
2019-02-06 08:00:00 6.2 8 Noroeste 14 Noroeste 0 -- -- 87
2019-02-06 07:00:00 6.6 9 Noroeste 17 Noroeste 0 -- -- 87
2019-02-06 06:00:00 6.2 0 Calma 11 Noroeste 0 -- -- 87
2019-02-06 05:00:00 6.6 4 Norte 15 Noroeste 0 -- -- 87
2019-02-06 04:00:00 6.8 8 Noroeste 14 Noroeste 0 -- -- 87
2019-02-06 03:00:00 6.6 8 Noroeste 12 Noroeste 0 -- -- 88
2019-02-06 02:00:00 7.4 5 Noroeste 15 Noroeste 0 -- -- 86
2019-02-06 01:00:00 7.7 9 Noroeste 18 Noroeste 0 -- -- 88
2019-02-06 00:00:00 8.5 4 Norte 13 Noroeste 0 -- -- 88
2019-02-05 23:00:00 8.3 7 Noroeste 14 Noroeste 0 -- -- 85
2019-02-05 22:00:00 9.6 5 Noroeste 12 Oeste 0 -- -- 83
2019-02-05 21:00:00 12.2 5 Noroeste 11 Noroeste 0 -- -- 77
2019-02-05 20:00:00 13.2 4 Norte 13 Norte 0 -- -- 74
2019-02-05 19:00:00 14.4 5 Norte 23 Norte 0 -- -- 70
2019-02-05 18:00:00 15.4 10 Nordeste 23 Nordeste 0 -- -- 66
2019-02-05 17:00:00 15.9 6 Sudoeste 27 Nordeste 0 -- -- 66
2019-02-05 16:00:00 16.4 5 Sudeste 15 Sur 0 -- -- 65
2019-02-05 15:00:00 12.9 4 Sudeste 8 Sur 0 -- -- 74
2019-02-05 14:00:00 10.9 3 Sudoeste 9 Sur 0 -- -- 80
2019-02-05 13:00:00 8.3 4 Sudoeste 8 Sudeste 0 -- -- 87
2019-02-05 12:00:00 8.1 4 Sudeste 12 Noroeste 0 -- -- 83
2019-02-05 11:00:00 7.4 0 Calma 5 Este 0 -- -- 76
2019-02-05 10:00:00 6.6 3 Noroeste 8 Noroeste 0.2 -- -- 90
2019-02-05 09:00:00 6.6 0 Calma 6 Noroeste 0 -- -- 83
2019-02-05 08:00:00 6.3 3 Noroeste 5 Noroeste 0.2 -- -- 90
2019-02-05 07:00:00 6.2 3 Noroeste 6 Norte 0 -- -- 88
2019-02-05 06:00:00 6.1 3 Oeste 5 Oeste 0.4 -- -- 88
2019-02-05 05:00:00 6.4 2 Noroeste 8 Nordeste 0.4 -- -- 82
2019-02-05 04:00:00 6.8 3 Nordeste 8 Nordeste 0 -- -- 75
2019-02-05 03:00:00 6.5 0 Calma 4 Noroeste 0 -- -- 76
2019-02-05 02:00:00 6.2 0 Calma 3 Noroeste 0 -- -- 68
2019-02-05 01:00:00 6.1 0 Calma 5 Nordeste 0 -- -- 66
2019-02-05 00:00:00 5.6 3 Noroeste 4 Noroeste 0 -- -- 62
2019-02-04 23:00:00 5.7 2 Sudeste 5 Sudoeste 0 -- -- 57
2019-02-04 22:00:00 6.9 0 Calma 5 Noroeste 0 -- -- 51
2019-02-04 21:00:00 8.1 3 Norte 6 Noroeste 0 -- -- 46
2019-02-04 20:00:00 8.3 4 Oeste 9 Noroeste 0 -- -- 48
2019-02-04 19:00:00 9.6 4 Noroeste 9 Oeste 0 -- -- 42
2019-02-04 18:00:00 11.1 2 Sur 11 Sudeste 0 -- -- 34
2019-02-04 17:00:00 12.8 6 Sudeste 13 Sudeste 0 -- -- 31
2019-02-04 16:00:00 14.2 6 Sudeste 13 Sudeste 0 -- -- 23
2019-02-04 15:00:00 14.9 5 Este 26 Noroeste 0 -- -- 18
2019-02-04 14:00:00 15.1 7 Noroeste 18 Noroeste 0 -- -- 17
2019-02-04 13:00:00 14.4 6 Norte 36 Noroeste 0 -- -- 18
2019-02-04 12:00:00 13.8 11 Norte 48 Nordeste 0 -- -- 15
2019-02-04 11:00:00 13 21 Nordeste 46 Norte 0 -- -- 13
2019-02-04 10:00:00 10.9 17 Norte 32 Nordeste 0 -- -- 17
2019-02-04 09:00:00 9.5 6 Norte 31 Norte 0 -- -- 20
2019-02-04 08:00:00 8.8 11 Nordeste 57 Norte 0 -- -- 20
2019-02-04 07:00:00 8.9 20 Nordeste 51 Nordeste 0 -- -- 20
2019-02-04 06:00:00 7.5 18 Nordeste 41 Nordeste 0 -- -- 27
2019-02-04 05:00:00 7.1 20 Nordeste 44 Nordeste 0 -- -- 31
2019-02-04 04:00:00 7.1 16 Nordeste 60 Nordeste 0 -- -- 34
2019-02-04 03:00:00 7 21 Nordeste 52 Nordeste 0 -- -- 36
2019-02-04 02:00:00 6.8 20 Nordeste 57 Este 0 -- -- 38
2019-02-04 01:00:00 7.2 23 Nordeste 65 Norte 0 -- -- 39
2019-02-04 00:00:00 7.5 31 Nordeste 77 Norte 0 -- -- 37
2019-02-03 23:00:00 7.7 29 Nordeste 64 Nordeste 0 -- -- 37
2019-02-03 22:00:00 7.7 14 Norte 49 Norte 0 -- -- 39
2019-02-03 21:00:00 8 10 Oeste 26 Sudoeste 0 -- -- 35
2019-02-03 20:00:00 7.9 9 Noroeste 42 Norte 0 -- -- 37
2019-02-03 19:00:00 7.9 12 Norte 44 Norte 0 -- -- 38
2019-02-03 18:00:00 8.5 19 Norte 68 Nordeste 0 -- -- 37
2019-02-03 17:00:00 9.5 21 Nordeste 68 Nordeste 0 -- -- 35
2019-02-03 16:00:00 10.3 24 Norte 66 Nordeste 0 -- -- 34
2019-02-03 15:00:00 10.7 24 Norte 72 Nordeste 0 -- -- 31
2019-02-03 14:00:00 9.6 30 Nordeste 65 Norte 0 -- -- 31
2019-02-03 13:00:00 9.4 35 Nordeste 72 Nordeste 0 -- -- 31
2019-02-03 12:00:00 8.4 26 Norte 60 Nordeste 0 -- -- 33
2019-02-03 11:00:00 7.9 29 Nordeste 80 Norte 0 -- -- 35
2019-02-03 10:00:00 7.1 28 Nordeste 77 Nordeste 0 -- -- 37
2019-02-03 09:00:00 6.6 35 Nordeste 67 Nordeste 0 -- -- 33
2019-02-03 08:00:00 6.2 23 Nordeste 74 Nordeste 0 -- -- 36
2019-02-03 07:00:00 6.7 31 Nordeste 85 Norte 0 -- -- 34
2019-02-03 06:00:00 6.2 22 Norte 63 Norte 0 -- -- 40
2019-02-03 05:00:00 6.4 22 Nordeste 66 Nordeste 0 -- -- 43
2019-02-03 04:00:00 6.4 30 Nordeste 71 Norte 0 -- -- 45
2019-02-03 03:00:00 6.9 37 Nordeste 78 Nordeste 0 -- -- 43
2019-02-03 02:00:00 7.1 31 Nordeste 74 Nordeste 0 -- -- 42
2019-02-03 01:00:00 8.2 21 Nordeste 57 Nordeste 0 -- -- 36
2019-02-03 00:00:00 7.9 27 Nordeste 63 Nordeste 0 -- -- 39
2019-02-02 23:00:00 7.4 24 Nordeste 54 Nordeste 0 -- -- 47
2019-02-02 22:00:00 7.7 25 Nordeste 63 Nordeste 0 -- -- 47
2019-02-02 21:00:00 8.2 22 Nordeste 51 Nordeste 0 -- -- 49
2019-02-02 20:00:00 8.9 18 Norte 63 Nordeste 0 -- -- 47
2019-02-02 19:00:00 8.9 24 Nordeste 51 Nordeste 0 -- -- 47
2019-02-02 18:00:00 9.3 17 Nordeste 45 Norte 0 -- -- 47
2019-02-02 17:00:00 10.2 18 Nordeste 54 Norte 0 -- -- 47
2019-02-02 16:00:00 10 18 Nordeste 41 Nordeste 0 -- -- 58
2019-02-02 15:00:00 9.7 13 Nordeste 33 Nordeste 0 -- -- 62
2019-02-02 14:00:00 9.8 2 Nordeste 7 Nordeste 0 -- -- 71
2019-02-02 13:00:00 9.3 5 Nordeste 13 Nordeste 0 -- -- 74
2019-02-02 12:00:00 8.1 2 Nordeste 7 Sudoeste 0 -- -- 88
2019-02-02 11:00:00 7.1 2 Sudeste 5 Sudeste 0.4 -- -- 89
2019-02-02 10:00:00 6.6 0 Calma 9 Este 0.2 -- -- 87
2019-02-02 09:00:00 6.3 2 Nordeste 14 Norte 0 -- -- 87
2019-02-02 08:00:00 5.9 6 Sudoeste 17 Noroeste 0.2 -- -- 90
2019-02-02 07:00:00 6.7 10 Noroeste 23 Noroeste 0.4 -- -- 85
2019-02-02 06:00:00 7.6 6 Norte 32 Norte 0.2 -- -- 78
2019-02-02 05:00:00 8.5 17 Nordeste 35 Nordeste 0 -- -- 67
2019-02-02 04:00:00 8.6 18 Nordeste 43 Nordeste 0 -- -- 67
2019-02-02 03:00:00 9.1 14 Nordeste 37 Nordeste 0 -- -- 66
2019-02-02 02:00:00 9.5 12 Norte 33 Nordeste 0 -- -- 73
2019-02-02 01:00:00 10.9 10 Sudoeste 25 Sudoeste 0 -- -- 58
2019-02-02 00:00:00 9.5 5 Noroeste 13 Oeste 0 -- -- 62
2019-02-01 23:00:00 10.1 3 Oeste 10 Sudoeste 0 -- -- 61
2019-02-01 22:00:00 11.3 4 Oeste 31 Sudoeste 0 -- -- 57
2019-02-01 21:00:00 11.4 5 Oeste 18 Sudoeste 0 -- -- 56
2019-02-01 20:00:00 12 9 Sudoeste 18 Sudoeste 0 -- -- 52
2019-02-01 19:00:00 13.5 8 Sudoeste 19 Sudoeste 0 -- -- 47
2019-02-01 18:00:00 14.8 6 Sudoeste 23 Oeste 0 -- -- 47
2019-02-01 17:00:00 16.1 8 Oeste 33 Noroeste 0 -- -- 41
2019-02-01 16:00:00 18.2 13 Noroeste 40 Noroeste 0 -- -- 36
2019-02-01 15:00:00 19 15 Noroeste -- -- -- -- -- 37
2019-02-01 14:00:00 18.9 9 Oeste 27 Oeste 0 -- -- --
2019-02-01 13:00:00 15 6 Sudoeste 14 Sudoeste 0 -- -- --
2019-02-01 12:00:00 12.3 5 Sudoeste 8 Norte 0 -- -- --
2019-02-01 11:00:00 10.7 2 Sudoeste 10 Norte 0 -- -- --
2019-02-01 10:00:00 10.1 6 Nordeste 14 Norte 0 -- -- --
2019-02-01 09:00:00 9.9 6 Nordeste 14 Norte 0 -- -- --
2019-02-01 08:00:00 9.6 5 Nordeste 13 Noroeste 0 -- -- --
2019-02-01 07:00:00 9.4 4 Nordeste 12 Nordeste 0 -- -- --
2019-02-01 06:00:00 9.5 5 Nordeste 12 Nordeste 0 -- -- --
2019-02-01 05:00:00 9.2 5 Nordeste 13 Nordeste 0 -- -- --
2019-02-01 04:00:00 9.4 5 Nordeste 32 Nordeste 0 -- -- --
2019-02-01 03:00:00 9.5 13 Nordeste 30 Nordeste 0 -- -- --
2019-02-01 02:00:00 9.5 12 Nordeste 29 Nordeste 0 -- -- --
2019-02-01 01:00:00 -- -- -- -- -- -- -- -- --
2019-02-01 00:00:00 -- -- -- -- -- -- -- -- --
2019-01-31 23:00:00 -- -- -- -- -- -- -- -- --
2019-01-31 22:00:00 -- -- -- -- -- -- -- -- --
2019-01-31 21:00:00 -- -- -- -- -- -- -- -- --
2019-01-31 20:00:00 -- -- -- -- -- -- -- -- --
2019-01-31 19:00:00 -- -- -- -- -- -- -- -- --
2019-01-31 18:00:00 -- -- -- -- -- -- -- -- --
2019-01-31 17:00:00 -- -- -- -- -- -- -- -- --
2019-01-31 16:00:00 -- -- -- -- -- -- -- -- --
2019-01-31 15:00:00 -- -- -- -- -- -- -- -- --
2019-01-31 14:00:00 -- -- -- -- -- -- -- -- --
2019-01-31 13:00:00 -- -- -- -- -- -- -- -- --
2019-01-31 12:00:00 -- -- -- -- -- -- -- -- --
2019-01-31 11:00:00 -- -- -- -- -- -- -- -- --
2019-01-31 10:00:00 -- -- -- -- -- -- -- -- --
2019-01-31 09:00:00 -- -- -- -- -- -- -- -- --
2019-01-31 08:00:00 -- -- -- -- -- -- -- -- --
2019-01-31 07:00:00 -- -- -- -- -- -- -- -- --
2019-01-31 06:00:00 -- -- -- -- -- -- -- -- --
2019-01-31 05:00:00 -- -- -- -- -- -- -- -- --
2019-01-31 04:00:00 -- -- -- -- -- -- -- -- --
2019-01-31 03:00:00 -- -- -- -- -- -- -- -- --
2019-01-31 02:00:00 -- -- -- -- -- -- -- -- --
2019-01-31 01:00:00 -- -- -- -- -- -- -- -- --
2019-01-31 00:00:00 -- -- -- -- -- -- -- -- --
2019-01-30 23:00:00 -- -- -- -- -- -- -- -- --
2019-01-30 22:00:00 -- -- -- -- -- -- -- -- --
2019-01-30 21:00:00 -- -- -- -- -- -- -- -- --
2019-01-30 20:00:00 -- -- -- -- -- -- -- -- --
2019-01-30 19:00:00 -- -- -- -- -- -- -- -- --
2019-01-30 18:00:00 -- -- -- -- -- -- -- -- --
2019-01-30 17:00:00 -- -- -- -- -- -- -- -- --
2019-01-30 16:00:00 -- -- -- -- -- -- -- -- --
2019-01-30 15:00:00 -- -- -- -- -- -- -- -- --
2019-01-30 14:00:00 -- -- -- -- -- -- -- -- --
2019-01-30 13:00:00 -- -- -- -- -- -- -- -- --
2019-01-30 12:00:00 -- -- -- -- -- -- -- -- --
2019-01-30 11:00:00 -- -- -- -- -- -- -- -- --
2019-01-30 10:00:00 -- -- -- -- -- -- -- -- --
2019-01-30 09:00:00 -- -- -- -- -- -- -- -- --
2019-01-30 08:00:00 -- -- -- -- -- -- -- -- --
2019-01-30 07:00:00 -- -- -- -- -- -- -- -- --
2019-01-30 06:00:00 -- -- -- -- -- -- -- -- --
2019-01-30 05:00:00 -- -- -- -- -- -- -- -- --
2019-01-30 04:00:00 -- -- -- -- -- -- -- -- --
2019-01-30 03:00:00 -- -- -- -- -- -- -- -- --
2019-01-30 02:00:00 -- -- -- -- -- -- -- -- --
2019-01-30 01:00:00 -- -- -- -- -- -- -- -- --
2019-01-30 00:00:00 -- -- -- -- -- -- -- -- --
2019-01-29 23:00:00 -- -- -- -- -- -- -- -- --
2019-01-29 22:00:00 -- -- -- -- -- -- -- -- --
2019-01-29 21:00:00 -- -- -- -- -- -- -- -- --
2019-01-29 20:00:00 -- -- -- -- -- -- -- -- --
2019-01-29 19:00:00 -- -- -- -- -- -- -- -- --
2019-01-29 18:00:00 -- -- -- -- -- -- -- -- --
2019-01-29 17:00:00 -- -- -- -- -- -- -- -- --
2019-01-29 16:00:00 -- -- -- -- -- -- -- -- --
2019-01-29 15:00:00 -- -- -- -- -- -- -- -- --
2019-01-29 14:00:00 -- -- -- -- -- -- -- -- --
2019-01-29 13:00:00 -- -- -- -- -- -- -- -- --
2019-01-29 12:00:00 -- -- -- -- -- -- -- -- --
2019-01-29 11:00:00 -- -- -- -- -- -- -- -- --
2019-01-29 10:00:00 -- -- -- -- -- -- -- -- --
2019-01-29 09:00:00 -- -- -- -- -- -- -- -- --
2019-01-29 08:00:00 -- -- -- -- -- -- -- -- --
2019-01-29 07:00:00 -- -- -- -- -- -- -- -- --
2019-01-29 06:00:00 -- -- -- -- -- -- -- -- --
2019-01-29 05:00:00 -- -- -- -- -- -- -- -- --
2019-01-29 04:00:00 -- -- -- -- -- -- -- -- --
2019-01-29 03:00:00 -- -- -- -- -- -- -- -- --
2019-01-29 02:00:00 -- -- -- -- -- -- -- -- --
2019-01-29 01:00:00 -- -- -- -- -- -- -- -- --
2019-01-29 00:00:00 -- -- -- -- -- -- -- -- --
2019-01-28 23:00:00 -- -- -- -- -- -- -- -- --
2019-01-28 22:00:00 -- -- -- -- -- -- -- -- --
2019-01-28 21:00:00 -- -- -- -- -- -- -- -- --
2019-01-28 20:00:00 -- -- -- -- -- -- -- -- --
2019-01-28 19:00:00 -- -- -- -- -- -- -- -- --
2019-01-28 18:00:00 -- -- -- -- -- -- -- -- --
2019-01-28 17:00:00 -- -- -- -- -- -- -- -- --
2019-01-28 16:00:00 -- -- -- -- -- -- -- -- --
2019-01-28 15:00:00 -- -- -- -- -- -- -- -- --
2019-01-28 14:00:00 -- -- -- -- -- -- -- -- --
2019-01-28 13:00:00 -- -- -- -- -- -- -- -- --
2019-01-28 12:00:00 -- -- -- -- -- -- -- -- --
2019-01-28 11:00:00 -- -- -- -- -- -- -- -- --
2019-01-28 10:00:00 -- -- -- -- -- -- -- -- --
2019-01-28 09:00:00 -- -- -- -- -- -- -- -- --
2019-01-28 08:00:00 -- -- -- -- -- -- -- -- --
2019-01-28 07:00:00 -- -- -- -- -- -- -- -- --
2019-01-28 06:00:00 -- -- -- -- -- -- -- -- --
2019-01-28 05:00:00 -- -- -- -- -- -- -- -- --
2019-01-28 04:00:00 -- -- -- -- -- -- -- -- --
2019-01-28 03:00:00 -- -- -- -- -- -- -- -- --
2019-01-28 02:00:00 -- -- -- -- -- -- -- -- --
2019-01-28 01:00:00 -- -- -- -- -- -- -- -- --
2019-01-28 00:00:00 -- -- -- -- -- -- -- -- --
2019-01-27 23:00:00 -- -- -- -- -- -- -- -- --
2019-01-27 22:00:00 -- -- -- -- -- -- -- -- --
2019-01-27 21:00:00 -- -- -- -- -- -- -- -- --
2019-01-27 20:00:00 -- -- -- -- -- -- -- -- --
2019-01-27 19:00:00 -- -- -- -- -- -- -- -- --
2019-01-27 18:00:00 -- -- -- -- -- -- -- -- --
2019-01-27 17:00:00 -- -- -- -- -- -- -- -- --
2019-01-27 16:00:00 -- -- -- -- -- -- -- -- --
2019-01-27 15:00:00 -- -- -- -- -- -- -- -- --
2019-01-27 14:00:00 -- -- -- -- -- -- -- -- --
2019-01-27 13:00:00 -- -- -- -- -- -- -- -- --
2019-01-27 12:00:00 -- -- -- -- -- -- -- -- --
2019-01-27 11:00:00 -- -- -- -- -- -- -- -- --
2019-01-27 10:00:00 -- -- -- -- -- -- -- -- --
2019-01-27 09:00:00 -- -- -- -- -- -- -- -- --
2019-01-27 08:00:00 -- -- -- -- -- -- -- -- --
2019-01-27 07:00:00 -- -- -- -- -- -- -- -- --
2019-01-27 06:00:00 -- -- -- -- -- -- -- -- --
2019-01-27 05:00:00 -- -- -- -- -- -- -- -- --
2019-01-27 04:00:00 -- -- -- -- -- -- -- -- --
2019-01-27 03:00:00 -- -- -- -- -- -- -- -- --
2019-01-27 02:00:00 -- -- -- -- -- -- -- -- --
2019-01-27 01:00:00 -- -- -- -- -- -- -- -- --
2019-01-27 00:00:00 -- -- -- -- -- -- -- -- --
2019-01-26 23:00:00 -- -- -- -- -- -- -- -- --
2019-01-26 22:00:00 -- -- -- -- -- -- -- -- --
2019-01-26 21:00:00 -- -- -- -- -- -- -- -- --
2019-01-26 20:00:00 -- -- -- -- -- -- -- -- --
2019-01-26 19:00:00 -- -- -- -- -- -- -- -- --
2019-01-26 18:00:00 -- -- -- -- -- -- -- -- --
2019-01-26 17:00:00 -- -- -- -- -- -- -- -- --
2019-01-26 16:00:00 -- -- -- -- -- -- -- -- --
2019-01-26 15:00:00 -- -- -- -- -- -- -- -- --
2019-01-26 14:00:00 -- -- -- -- -- -- -- -- --
2019-01-26 13:00:00 -- -- -- -- -- -- -- -- --
2019-01-26 12:00:00 -- -- -- -- -- -- -- -- --
2019-01-26 11:00:00 -- -- -- -- -- -- -- -- --
2019-01-26 10:00:00 -- -- -- -- -- -- -- -- --
2019-01-26 09:00:00 -- -- -- -- -- -- -- -- --
2019-01-26 08:00:00 -- -- -- -- -- -- -- -- --
2019-01-26 07:00:00 -- -- -- -- -- -- -- -- --
2019-01-26 06:00:00 -- -- -- -- -- -- -- -- --
2019-01-26 05:00:00 -- -- -- -- -- -- -- -- --
2019-01-26 04:00:00 -- -- -- -- -- -- -- -- --
2019-01-26 03:00:00 -- -- -- -- -- -- -- -- --
2019-01-26 02:00:00 -- -- -- -- -- -- -- -- --
2019-01-26 01:00:00 -- -- -- -- -- -- -- -- --
2019-01-26 00:00:00 -- -- -- -- -- -- -- -- --
2019-01-25 23:00:00 -- -- -- -- -- -- -- -- --
2019-01-25 22:00:00 -- -- -- -- -- -- -- -- --
2019-01-25 21:00:00 -- -- -- -- -- -- -- -- --
2019-01-25 20:00:00 -- -- -- -- -- -- -- -- --
2019-01-25 19:00:00 -- -- -- -- -- -- -- -- --
2019-01-25 18:00:00 -- -- -- -- -- -- -- -- --
2019-01-25 17:00:00 -- -- -- -- -- -- -- -- --
2019-01-25 16:00:00 -- -- -- -- -- -- -- -- --
2019-01-25 15:00:00 -- -- -- -- -- -- -- -- --
2019-01-25 14:00:00 -- -- -- -- -- -- -- -- --
2019-01-25 13:00:00 -- -- -- -- -- -- -- -- --
2019-01-25 12:00:00 -- -- -- -- -- -- -- -- --
2019-01-25 11:00:00 -- -- -- -- -- -- -- -- --
2019-01-25 10:00:00 -- -- -- -- -- -- -- -- --
2019-01-25 09:00:00 -- -- -- -- -- -- -- -- --
2019-01-25 08:00:00 -- -- -- -- -- -- -- -- --
2019-01-25 07:00:00 -- -- -- -- -- -- -- -- --
2019-01-25 06:00:00 -- -- -- -- -- -- -- -- --
2019-01-25 05:00:00 -- -- -- -- -- -- -- -- --
2019-01-25 04:00:00 -- -- -- -- -- -- -- -- --
2019-01-25 03:00:00 -- -- -- -- -- -- -- -- --
2019-01-25 02:00:00 -- -- -- -- -- -- -- -- --
2019-01-25 01:00:00 -- -- -- -- -- -- -- -- --
2019-01-25 00:00:00 -- -- -- -- -- -- -- -- --
2019-01-24 23:00:00 -- -- -- -- -- -- -- -- --
2019-01-24 22:00:00 -- -- -- -- -- -- -- -- --
2019-01-24 21:00:00 -- -- -- -- -- -- -- -- --
2019-01-24 20:00:00 -- -- -- -- -- -- -- -- --
2019-01-24 19:00:00 -- -- -- -- -- -- -- -- --
2019-01-24 18:00:00 -- -- -- -- -- -- -- -- --
2019-01-24 17:00:00 -- -- -- -- -- -- -- -- --
2019-01-24 16:00:00 -- -- -- -- -- -- -- -- --
2019-01-24 15:00:00 -- -- -- -- -- -- -- -- --
2019-01-24 14:00:00 -- -- -- -- -- -- -- -- --
2019-01-24 13:00:00 -- -- -- -- -- -- -- -- --
2019-01-24 12:00:00 -- -- -- -- -- -- -- -- --
2019-01-24 11:00:00 -- -- -- -- -- -- -- -- --
2019-01-24 10:00:00 -- -- -- -- -- -- -- -- --
2019-01-24 09:00:00 -- -- -- -- -- -- -- -- --
2019-01-24 08:00:00 -- -- -- -- -- -- -- -- --
2019-01-24 07:00:00 -- -- -- -- -- -- -- -- --
2019-01-24 06:00:00 -- -- -- -- -- -- -- -- --
2019-01-24 05:00:00 -- -- -- -- -- -- -- -- --
2019-01-24 04:00:00 -- -- -- -- -- -- -- -- --
2019-01-24 03:00:00 -- -- -- -- -- -- -- -- --
2019-01-24 02:00:00 -- -- -- -- -- -- -- -- --
2019-01-24 01:00:00 -- -- -- -- -- -- -- -- --
2019-01-24 00:00:00 -- -- -- -- -- -- -- -- --